Genco Loire — V7GN8 — position and weather

sailwx.info

Track history (hours):
 
Tides and Currents Weather Stations Pressure Air Temp Water Temp Dewpoint Dewpoint Depression Visibility Wind Speed Wind Dir Waves Ship Positions

Genco Loire

Last reported at 2015-Apr-13 09:10 UTC. Time now 2015-Apr-18 11:39 UTC.
Position N 02°05' E 102°06'.

Length 190 m; draft 9.3 m.

MMSI: 538002760.

Date/timePositionNaut miles runAvg speedWind from/ knotsBaromVisibWave heightAir tempDewpointWater temp
2015-Apr-13 09:10N 02°05' E 102°06'1213.7
2015-Apr-13 08:19N 01°58' E 102°15'1313.4
2015-Apr-13 07:20N 01°52' E 102°27'1313.5
2015-Apr-13 06:23N 01°46' E 102°38'8013.4
2015-Apr-13 00:27N 01°11' E 103°50'1010.5
2015-Apr-12 23:32N 01°15' E 103°59'2 1.7
2015-Apr-12 22:18N 01°17' E 104°00'0 0.1
2015-Apr-12 21:06N 01°17' E 103°60'0 0.1
2015-Apr-12 20:30N 01°17' E 103°60'0 0.0
2015-Apr-12 19:30N 01°17' E 103°60'0 0.0
2015-Apr-12 18:24N 01°17' E 103°60'0 0.0
2015-Apr-12 17:24N 01°17' E 103°60'0 0.0
2015-Apr-12 15:12N 01°17' E 103°60'0 0.0
2015-Apr-12 14:30N 01°17' E 103°60'0 0.0
2015-Apr-12 13:24N 01°17' E 103°60'0 0.0
2015-Apr-12 12:24N 01°17' E 103°60'0 0.0
2015-Apr-12 11:30N 01°17' E 103°60'0 0.0
2015-Apr-12 10:30N 01°17' E 103°60'0 0.0
2015-Apr-12 09:30N 01°17' E 103°60'0 0.0
2015-Apr-12 08:30N 01°17' E 103°60'0 0.0
2015-Apr-12 07:06N 01°17' E 103°60'0 0.0
2015-Apr-12 06:24N 01°17' E 103°60'0 0.1
2015-Apr-12 05:06N 01°17' E 103°60'0 0.1
2015-Apr-12 04:24N 01°17' E 104°00'3 3.7
2015-Apr-12 03:33N 01°16' E 104°03'6 5.5
2015-Apr-12 02:31N 01°17' E 104°09'  
2015-Apr-07 07:32N 22°23' E 119°55'1814.2
2015-Apr-07 06:15N 22°41' E 119°55'1214.7
2015-Apr-07 05:27N 22°52' E 119°55'51112.4
2015-Apr-05 12:17N 31°05' E 122°27'7 9.0
2015-Apr-05 11:33N 31°06' E 122°19'1313.2
2015-Apr-05 10:33N 31°13' E 122°06'1514.9
2015-Apr-05 09:34N 31°17' E 121°49'1312.7
2015-Apr-05 08:33N 31°23' E 121°36'1211.6
2015-Apr-05 07:33N 31°29' E 121°25'2 1.5
2015-Apr-05 06:31N 31°30' E 121°23'0 0.0
2015-Apr-05 05:31N 31°30' E 121°23'0 0.0
2015-Apr-05 04:31N 31°30' E 121°23'0 0.0
2015-Apr-05 03:25N 31°30' E 121°23'0 0.0
2015-Apr-05 02:31N 31°30' E 121°23'0 0.0
2015-Apr-05 01:31N 31°30' E 121°23'0 0.0
2015-Apr-05 00:31N 31°30' E 121°23'0 0.0
2015-Apr-04 23:31N 31°30' E 121°23'0 0.0
2015-Apr-04 22:31N 31°30' E 121°23'0 0.0
2015-Apr-04 21:31N 31°30' E 121°23'0 0.0
2015-Apr-04 20:31N 31°30' E 121°23'0 0.0
2015-Apr-04 19:28N 31°30' E 121°23'0 0.0
2015-Apr-04 18:31N 31°30' E 121°23'0 0.0
2015-Apr-04 17:31N 31°30' E 121°23'0 0.0
2015-Apr-04 16:31N 31°30' E 121°23'0 0.0
2015-Apr-04 15:31N 31°30' E 121°23'0 0.0
2015-Apr-04 14:31N 31°30' E 121°23'0 0.0
2015-Apr-04 13:31N 31°30' E 121°23'0 0.0
2015-Apr-04 12:28N 31°30' E 121°23'0 0.0
2015-Apr-04 11:31N 31°30' E 121°23'0 0.0
2015-Apr-04 10:31N 31°30' E 121°23'0 0.0
2015-Apr-04 09:31N 31°30' E 121°23'0 0.0
2015-Apr-04 08:31N 31°30' E 121°23'0 0.0
2015-Apr-04 07:25N 31°30' E 121°23'0 0.0
2015-Apr-04 06:31N 31°30' E 121°23'0 0.0
2015-Apr-04 05:31N 31°30' E 121°23'0 0.0
2015-Apr-04 04:31N 31°30' E 121°23'0 0.0
2015-Apr-04 03:31N 31°30' E 121°23'0 0.0
2015-Apr-04 02:31N 31°30' E 121°23'0 0.0
2015-Apr-04 01:31N 31°30' E 121°23'0 0.0
2015-Apr-04 00:31N 31°30' E 121°23'0 0.0
2015-Apr-03 23:34N 31°30' E 121°23'0 0.0
2015-Apr-03 22:31N 31°30' E 121°23'0 0.0
2015-Apr-03 21:31N 31°30' E 121°23'0 0.0
2015-Apr-03 20:31N 31°30' E 121°23'0 0.0
2015-Apr-03 19:31N 31°30' E 121°23'0 0.0
2015-Apr-03 18:34N 31°30' E 121°23'0 0.0
2015-Apr-03 17:31N 31°30' E 121°23'0 0.0
2015-Apr-03 16:31N 31°30' E 121°23'0 0.0
2015-Apr-03 15:28N 31°30' E 121°23'0 0.0
2015-Apr-03 14:31N 31°30' E 121°23'0 0.0
2015-Apr-03 13:34N 31°30' E 121°23'0 0.0
2015-Apr-03 12:31N 31°30' E 121°23'0 0.0
2015-Apr-03 11:34N 31°30' E 121°23'0 0.0
2015-Apr-03 10:34N 31°30' E 121°23'0 0.0
2015-Apr-03 09:34N 31°30' E 121°23'  
Track history (hours):
 
Tides and Currents Weather Stations Pressure Air Temp Water Temp Dewpoint Dewpoint Depression Visibility Wind Speed Wind Dir Waves Ship Positions

Genco Loire

Last reported at 2015-Apr-13 09:10 UTC. Time now 2015-Apr-18 11:39 UTC.
Position N 02°05' E 102°06'.

Length 190 m; draft 9.3 m.

MMSI: 538002760.

Date/timePositionNaut miles runAvg speedWind from/ knotsBaromVisibWave heightAir tempDewpointWater temp
2015-Apr-13 09:10N 02°05' E 102°06'1213.7
2015-Apr-13 08:19N 01°58' E 102°15'1313.4
2015-Apr-13 07:20N 01°52' E 102°27'1313.5
2015-Apr-13 06:23N 01°46' E 102°38'8013.4
2015-Apr-13 00:27N 01°11' E 103°50'1010.5
2015-Apr-12 23:32N 01°15' E 103°59'2 1.7
2015-Apr-12 22:18N 01°17' E 104°00'0 0.1
2015-Apr-12 21:06N 01°17' E 103°60'0 0.1
2015-Apr-12 20:30N 01°17' E 103°60'0 0.0
2015-Apr-12 19:30N 01°17' E 103°60'0 0.0
2015-Apr-12 18:24N 01°17' E 103°60'0 0.0
2015-Apr-12 17:24N 01°17' E 103°60'0 0.0
2015-Apr-12 15:12N 01°17' E 103°60'0 0.0
2015-Apr-12 14:30N 01°17' E 103°60'0 0.0
2015-Apr-12 13:24N 01°17' E 103°60'0 0.0
2015-Apr-12 12:24N 01°17' E 103°60'0 0.0
2015-Apr-12 11:30N 01°17' E 103°60'0 0.0
2015-Apr-12 10:30N 01°17' E 103°60'0 0.0
2015-Apr-12 09:30N 01°17' E 103°60'0 0.0
2015-Apr-12 08:30N 01°17' E 103°60'0 0.0
2015-Apr-12 07:06N 01°17' E 103°60'0 0.0
2015-Apr-12 06:24N 01°17' E 103°60'0 0.1
2015-Apr-12 05:06N 01°17' E 103°60'0 0.1
2015-Apr-12 04:24N 01°17' E 104°00'3 3.7
2015-Apr-12 03:33N 01°16' E 104°03'6 5.5
2015-Apr-12 02:31N 01°17' E 104°09'  
2015-Apr-07 07:32N 22°23' E 119°55'1814.2
2015-Apr-07 06:15N 22°41' E 119°55'1214.7
2015-Apr-07 05:27N 22°52' E 119°55'51112.4
2015-Apr-05 12:17N 31°05' E 122°27'7 9.0
2015-Apr-05 11:33N 31°06' E 122°19'1313.2
2015-Apr-05 10:33N 31°13' E 122°06'1514.9
2015-Apr-05 09:34N 31°17' E 121°49'1312.7
2015-Apr-05 08:33N 31°23' E 121°36'1211.6
2015-Apr-05 07:33N 31°29' E 121°25'2 1.5
2015-Apr-05 06:31N 31°30' E 121°23'0 0.0
2015-Apr-05 05:31N 31°30' E 121°23'0 0.0
2015-Apr-05 04:31N 31°30' E 121°23'0 0.0
2015-Apr-05 03:25N 31°30' E 121°23'0 0.0
2015-Apr-05 02:31N 31°30' E 121°23'0 0.0
2015-Apr-05 01:31N 31°30' E 121°23'0 0.0
2015-Apr-05 00:31N 31°30' E 121°23'0 0.0
2015-Apr-04 23:31N 31°30' E 121°23'0 0.0
2015-Apr-04 22:31N 31°30' E 121°23'0 0.0
2015-Apr-04 21:31N 31°30' E 121°23'0 0.0
2015-Apr-04 20:31N 31°30' E 121°23'0 0.0
2015-Apr-04 19:28N 31°30' E 121°23'0 0.0
2015-Apr-04 18:31N 31°30' E 121°23'0 0.0
2015-Apr-04 17:31N 31°30' E 121°23'0 0.0
2015-Apr-04 16:31N 31°30' E 121°23'0 0.0
2015-Apr-04 15:31N 31°30' E 121°23'0 0.0
2015-Apr-04 14:31N 31°30' E 121°23'0 0.0
2015-Apr-04 13:31N 31°30' E 121°23'0 0.0
2015-Apr-04 12:28N 31°30' E 121°23'0 0.0
2015-Apr-04 11:31N 31°30' E 121°23'0 0.0
2015-Apr-04 10:31N 31°30' E 121°23'0 0.0
2015-Apr-04 09:31N 31°30' E 121°23'0 0.0
2015-Apr-04 08:31N 31°30' E 121°23'0 0.0
2015-Apr-04 07:25N 31°30' E 121°23'0 0.0
2015-Apr-04 06:31N 31°30' E 121°23'0 0.0
2015-Apr-04 05:31N 31°30' E 121°23'0 0.0
2015-Apr-04 04:31N 31°30' E 121°23'0 0.0
2015-Apr-04 03:31N 31°30' E 121°23'0 0.0
2015-Apr-04 02:31N 31°30' E 121°23'0 0.0
2015-Apr-04 01:31N 31°30' E 121°23'0 0.0
2015-Apr-04 00:31N 31°30' E 121°23'0 0.0
2015-Apr-03 23:34N 31°30' E 121°23'0 0.0
2015-Apr-03 22:31N 31°30' E 121°23'0 0.0
2015-Apr-03 21:31N 31°30' E 121°23'0 0.0
2015-Apr-03 20:31N 31°30' E 121°23'0 0.0
2015-Apr-03 19:31N 31°30' E 121°23'0 0.0
2015-Apr-03 18:34N 31°30' E 121°23'0 0.0
2015-Apr-03 17:31N 31°30' E 121°23'0 0.0
2015-Apr-03 16:31N 31°30' E 121°23'0 0.0
2015-Apr-03 15:28N 31°30' E 121°23'0 0.0
2015-Apr-03 14:31N 31°30' E 121°23'0 0.0
2015-Apr-03 13:34N 31°30' E 121°23'0 0.0
2015-Apr-03 12:31N 31°30' E 121°23'0 0.0
2015-Apr-03 11:34N 31°30' E 121°23'0 0.0
2015-Apr-03 10:34N 31°30' E 121°23'0 0.0
2015-Apr-03 09:34N 31°30' E 121°23'  

Dump ship's entire track history